createdAt,value
2023-09-10T00:02:12.529Z,14.44
2023-09-10T00:04:44.094Z,14.51
2023-09-10T00:07:15.455Z,14.56
2023-09-10T00:09:45.892Z,14.58
2023-09-10T00:12:16.232Z,14.60
2023-09-10T00:14:48.170Z,14.61
2023-09-10T00:17:19.559Z,14.57
2023-09-10T00:19:50.201Z,14.56
2023-09-10T00:22:20.643Z,14.57
2023-09-10T00:24:51.482Z,14.60
2023-09-10T00:27:21.403Z,14.61
2023-09-10T00:29:51.794Z,14.61
2023-09-10T00:32:21.868Z,14.61
2023-09-10T00:34:53.211Z,14.61
2023-09-10T00:37:26.564Z,14.63
2023-09-10T00:39:56.950Z,14.64
2023-09-10T00:42:26.902Z,14.56
2023-09-10T00:44:58.981Z,14.50
2023-09-10T00:47:32.078Z,14.48
2023-09-10T00:50:03.193Z,14.44
2023-09-10T00:52:34.653Z,14.42
2023-09-10T00:55:07.366Z,14.31
2023-09-10T00:57:38.796Z,14.20
2023-09-10T01:00:14.457Z,14.09
2023-09-10T01:02:49.246Z,14.03
2023-09-10T01:05:21.069Z,14.00
2023-09-10T01:07:52.574Z,14.03
2023-09-10T01:10:29.644Z,14.06
2023-09-10T01:13:16.005Z,14.09
2023-09-10T01:16:14.432Z,14.13
2023-09-10T01:18:58.616Z,14.13
2023-09-10T01:21:58.552Z,14.17
2023-09-10T01:24:48.862Z,14.21
2023-09-10T01:27:20.239Z,14.23
2023-09-10T01:29:51.287Z,14.17
2023-09-10T01:32:29.163Z,14.12
2023-09-10T01:35:22.162Z,14.05
2023-09-10T01:38:10.666Z,13.93
2023-09-10T01:40:51.617Z,13.90
2023-09-10T01:43:23.123Z,13.90
2023-09-10T01:45:53.890Z,13.90
2023-09-10T01:48:23.898Z,13.95
2023-09-10T01:50:54.671Z,13.90
2023-09-10T01:53:25.215Z,13.95
2023-09-10T01:55:57.214Z,13.95
2023-09-10T01:58:28.668Z,13.96
2023-09-10T02:00:59.586Z,13.98
2023-09-10T02:03:31.319Z,13.93
2023-09-10T02:06:05.762Z,13.92
2023-09-10T02:08:36.123Z,13.93
2023-09-10T02:11:08.444Z,13.95
2023-09-10T02:13:39.273Z,13.98
2023-09-10T02:16:10.677Z,13.99
2023-09-10T02:18:41.823Z,14.02
2023-09-10T02:21:13.995Z,14.00
2023-09-10T02:23:45.157Z,14.05
2023-09-10T02:26:16.014Z,14.03
2023-09-10T02:28:46.574Z,14.08
2023-09-10T02:31:17.118Z,14.12
2023-09-10T02:33:49.029Z,14.12
2023-09-10T02:36:19.612Z,14.14
2023-09-10T02:38:49.507Z,14.16
2023-09-10T02:41:20.645Z,14.10
2023-09-10T02:43:51.730Z,14.16
2023-09-10T02:46:25.588Z,14.09
2023-09-10T02:48:55.836Z,14.12
2023-09-10T02:51:26.402Z,14.12
2023-09-10T02:53:57.663Z,14.10
2023-09-10T02:56:27.894Z,14.08
2023-09-10T02:58:57.743Z,14.05
2023-09-10T03:01:28.797Z,14.05
2023-09-10T03:03:59.700Z,14.03
2023-09-10T03:06:30.760Z,14.03
2023-09-10T03:09:00.647Z,13.98
2023-09-10T03:11:33.872Z,13.95
2023-09-10T03:14:05.613Z,13.98
2023-09-10T03:16:37.231Z,14.00
2023-09-10T03:19:07.777Z,14.00
2023-09-10T03:21:40.327Z,14.06
2023-09-10T03:24:12.805Z,14.12
2023-09-10T03:26:44.968Z,14.09
2023-09-10T03:29:15.713Z,14.08
2023-09-10T03:31:46.606Z,14.10
2023-09-10T03:34:17.815Z,14.12
2023-09-10T03:36:49.501Z,14.09
2023-09-10T03:39:20.321Z,14.12
2023-09-10T03:41:50.801Z,14.09
2023-09-10T03:44:25.025Z,14.10
2023-09-10T03:46:56.673Z,14.03
2023-09-10T03:49:26.770Z,14.05
2023-09-10T03:51:58.928Z,14.05
2023-09-10T03:54:29.880Z,13.99
2023-09-10T03:57:01.576Z,13.90
2023-09-10T03:59:32.169Z,13.85
2023-09-10T04:02:02.560Z,13.82
2023-09-10T04:04:33.685Z,13.80
2023-09-10T04:07:04.102Z,13.79
2023-09-10T04:09:34.403Z,13.76
2023-09-10T04:12:04.307Z,13.80
2023-09-10T04:14:35.281Z,13.78
2023-09-10T04:17:06.234Z,13.83
2023-09-10T04:19:36.511Z,13.87
2023-09-10T04:22:07.018Z,13.92
2023-09-10T04:24:38.363Z,13.96
2023-09-10T04:27:10.138Z,13.93
2023-09-10T04:29:41.261Z,13.98
2023-09-10T04:32:11.563Z,14.02
2023-09-10T04:34:43.050Z,13.99
2023-09-10T04:37:13.557Z,14.03
2023-09-10T04:39:43.449Z,14.06
2023-09-10T04:42:13.777Z,14.09
2023-09-10T04:44:44.385Z,14.14
2023-09-10T04:47:16.047Z,14.12
2023-09-10T04:49:46.270Z,14.12
2023-09-10T04:52:18.073Z,14.10
2023-09-10T04:54:55.604Z,14.10
2023-09-10T04:57:26.604Z,14.14
2023-09-10T04:59:57.704Z,14.14
2023-09-10T05:02:27.774Z,14.19
2023-09-10T05:04:59.130Z,14.21
2023-09-10T05:07:29.983Z,14.21
2023-09-10T05:10:00.863Z,14.21
2023-09-10T05:12:31.807Z,14.20
2023-09-10T05:15:02.320Z,14.16
2023-09-10T05:17:33.122Z,14.16
2023-09-10T05:20:03.768Z,14.14
2023-09-10T05:22:34.920Z,14.13
2023-09-10T05:25:06.106Z,14.13
2023-09-10T05:27:37.097Z,14.12
2023-09-10T05:30:09.776Z,14.12
2023-09-10T05:32:41.122Z,14.03
2023-09-10T05:35:12.495Z,13.96
2023-09-10T05:37:43.640Z,13.89
2023-09-10T05:40:14.692Z,13.80
2023-09-10T05:42:47.671Z,13.71
2023-09-10T05:45:17.884Z,13.65
2023-09-10T05:47:48.026Z,13.55
2023-09-10T05:50:18.775Z,13.48
2023-09-10T05:52:50.975Z,13.41
2023-09-10T05:55:22.002Z,13.34
2023-09-10T05:57:54.685Z,13.24
2023-09-10T06:00:25.532Z,13.15
2023-09-10T06:02:55.958Z,13.13
2023-09-10T06:05:29.005Z,13.08
2023-09-10T06:07:59.862Z,13.07
2023-09-10T06:10:30.048Z,13.00
2023-09-10T06:13:01.537Z,12.99
2023-09-10T06:15:32.764Z,12.92
2023-09-10T06:18:03.165Z,12.89
2023-09-10T06:20:33.228Z,12.84
2023-09-10T06:23:04.488Z,12.80
2023-09-10T06:25:36.300Z,12.77
2023-09-10T06:28:07.068Z,12.72
2023-09-10T06:30:37.301Z,12.67
2023-09-10T06:33:07.983Z,12.62
2023-09-10T06:35:38.922Z,12.59
2023-09-10T06:38:10.929Z,12.57
2023-09-10T06:40:41.345Z,12.50
2023-09-10T06:43:11.951Z,12.46
2023-09-10T06:45:58.316Z,12.45
2023-09-10T06:48:28.368Z,12.39
2023-09-10T06:51:03.061Z,12.38
2023-09-10T06:53:33.997Z,12.41
2023-09-10T06:56:05.126Z,12.36
2023-09-10T06:58:35.546Z,12.41
2023-09-10T07:01:11.073Z,12.39
2023-09-10T07:03:41.298Z,12.42
2023-09-10T07:06:11.695Z,12.43
2023-09-10T07:08:42.198Z,12.39
2023-09-10T07:11:12.346Z,12.45
2023-09-10T07:13:43.049Z,12.55
2023-09-10T07:16:14.401Z,12.67
2023-09-10T07:18:44.782Z,12.75
2023-09-10T07:21:14.734Z,12.84
2023-09-10T07:23:45.501Z,12.90
2023-09-10T07:26:15.852Z,12.99
2023-09-10T07:28:46.550Z,13.06
2023-09-10T07:31:16.529Z,13.10
2023-09-10T07:33:49.534Z,13.20
2023-09-10T07:36:20.160Z,13.31
2023-09-10T07:38:51.461Z,13.38
2023-09-10T07:41:21.979Z,13.50
2023-09-10T07:43:52.848Z,13.52
2023-09-10T07:46:23.664Z,13.58
2023-09-10T07:48:53.477Z,13.61
2023-09-10T07:51:24.680Z,13.62
2023-09-10T07:53:57.314Z,13.69
2023-09-10T07:56:28.010Z,13.73
2023-09-10T07:58:58.594Z,13.78
2023-09-10T08:01:28.697Z,13.80
2023-09-10T08:03:59.256Z,13.86
2023-09-10T08:06:29.948Z,13.92
2023-09-10T08:09:00.408Z,13.98
2023-09-10T08:11:30.388Z,14.00
2023-09-10T08:14:01.372Z,14.05
2023-09-10T08:16:33.985Z,14.09
2023-09-10T08:19:04.048Z,14.16
2023-09-10T08:21:34.208Z,14.17
2023-09-10T08:24:05.049Z,14.17
2023-09-10T08:26:35.997Z,14.21
2023-09-10T08:29:08.225Z,14.24
2023-09-10T08:31:38.410Z,14.27
2023-09-10T08:34:08.844Z,14.27
2023-09-10T08:36:40.388Z,14.33
2023-09-10T08:39:10.532Z,14.34
2023-09-10T08:41:57.836Z,14.33
2023-09-10T08:44:29.536Z,14.31
2023-09-10T08:47:03.999Z,14.30
2023-09-10T08:49:37.040Z,14.30
2023-09-10T08:52:07.899Z,14.33
2023-09-10T08:54:38.777Z,14.33
2023-09-10T08:57:09.317Z,14.29
2023-09-10T08:59:40.528Z,14.34
2023-09-10T09:02:13.095Z,14.31
2023-09-10T09:04:43.719Z,14.23
2023-09-10T09:07:21.353Z,14.23
2023-09-10T09:09:55.780Z,14.19
2023-09-10T09:12:25.902Z,14.17
2023-09-10T09:14:58.078Z,14.14
2023-09-10T09:17:30.246Z,14.12
2023-09-10T09:20:07.355Z,14.14
2023-09-10T09:22:39.555Z,14.10
2023-09-10T09:25:11.433Z,14.08
2023-09-10T09:27:49.684Z,14.13
2023-09-10T09:30:19.912Z,14.16
2023-09-10T09:32:52.032Z,14.20
2023-09-10T09:35:22.631Z,14.20
2023-09-10T09:37:53.766Z,14.20
2023-09-10T09:40:24.216Z,14.21
2023-09-10T09:43:05.337Z,14.23
2023-09-10T09:45:44.257Z,14.27
2023-09-10T09:48:15.823Z,14.31
2023-09-10T09:50:49.657Z,14.36
2023-09-10T09:53:19.706Z,14.41
2023-09-10T09:55:50.420Z,14.40
2023-09-10T09:58:21.721Z,14.45
2023-09-10T10:00:51.908Z,14.56
2023-09-10T10:03:22.642Z,14.72
2023-09-10T10:05:57.762Z,14.78
2023-09-10T10:08:34.004Z,15.00
2023-09-10T10:11:04.395Z,15.22
2023-09-10T10:13:35.982Z,15.43
2023-09-10T10:16:07.236Z,15.57
2023-09-10T10:18:38.206Z,15.43
2023-09-10T10:21:12.222Z,15.42
2023-09-10T10:23:44.681Z,15.40
2023-09-10T10:26:16.245Z,15.47
2023-09-10T10:28:52.023Z,15.47
2023-09-10T10:31:25.286Z,15.60
2023-09-10T10:34:19.049Z,15.80
2023-09-10T10:37:27.322Z,15.90
2023-09-10T10:40:20.009Z,16.04
2023-09-10T10:43:13.241Z,16.25
2023-09-10T10:45:46.482Z,16.36
2023-09-10T10:48:22.801Z,16.44
2023-09-10T10:50:56.409Z,16.44
2023-09-10T10:53:27.944Z,16.36
2023-09-10T10:56:02.836Z,16.45
2023-09-10T10:58:37.006Z,16.46
2023-09-10T11:01:08.666Z,16.69
2023-09-10T11:03:39.290Z,16.65
2023-09-10T11:06:10.097Z,16.73
2023-09-10T11:08:43.925Z,16.94
2023-09-10T11:11:37.517Z,17.20
2023-09-10T11:14:10.456Z,17.41
2023-09-10T11:16:45.431Z,17.30
2023-09-10T11:19:47.934Z,19.24
2023-09-10T11:22:18.280Z,20.93
2023-09-10T11:25:08.231Z,19.26
2023-09-10T11:27:39.053Z,18.96
2023-09-10T11:30:23.611Z,19.12
2023-09-10T11:33:32.132Z,21.30
2023-09-10T11:36:02.452Z,19.84
2023-09-10T11:38:33.497Z,22.61
2023-09-10T11:41:04.307Z,22.85
2023-09-10T11:43:36.016Z,22.51
2023-09-10T11:46:06.274Z,20.79
2023-09-10T11:48:36.510Z,22.13
2023-09-10T11:51:07.675Z,23.56
2023-09-10T11:53:38.605Z,22.71
2023-09-10T11:56:08.684Z,22.40
2023-09-10T11:58:40.118Z,21.49
2023-09-10T12:01:11.936Z,22.62
2023-09-10T12:03:47.819Z,23.67
2023-09-10T12:06:19.998Z,23.64
2023-09-10T12:08:50.445Z,23.88
2023-09-10T12:11:23.568Z,22.04
2023-09-10T12:13:55.343Z,20.81
2023-09-10T12:16:26.002Z,20.50
2023-09-10T12:18:56.473Z,20.14
2023-09-10T12:21:28.952Z,20.26
2023-09-10T12:23:59.855Z,19.89
2023-09-10T12:26:30.079Z,19.87
2023-09-10T12:29:01.118Z,21.25
2023-09-10T12:31:32.500Z,20.73
2023-09-10T12:34:03.987Z,20.36
2023-09-10T12:36:34.833Z,20.62
2023-09-10T12:39:06.514Z,21.20
2023-09-10T12:41:40.291Z,21.27
2023-09-10T12:44:13.391Z,21.75
2023-09-10T12:46:44.158Z,21.42
2023-09-10T12:49:15.307Z,21.21
2023-09-10T12:51:47.184Z,20.77
2023-09-10T12:54:18.423Z,20.88
2023-09-10T12:56:54.154Z,21.11
2023-09-10T12:59:24.596Z,21.05
2023-09-10T13:01:55.084Z,21.93
2023-09-10T13:04:26.240Z,22.10
2023-09-10T13:06:56.486Z,22.52
2023-09-10T13:09:27.073Z,23.03
2023-09-10T13:11:58.981Z,22.47
2023-09-10T13:14:33.437Z,24.09
2023-09-10T13:17:04.044Z,23.94
2023-09-10T13:19:34.523Z,24.28
2023-09-10T13:22:05.368Z,24.49
2023-09-10T13:24:36.972Z,24.48
2023-09-10T13:27:08.118Z,24.53
2023-09-10T13:29:38.818Z,24.52
2023-09-10T13:32:10.120Z,24.28
2023-09-10T13:34:41.543Z,24.33
2023-09-10T13:37:12.197Z,23.66
2023-09-10T13:39:43.811Z,24.25
2023-09-10T13:42:14.396Z,24.62
2023-09-10T13:44:44.866Z,24.88
2023-09-10T13:47:15.387Z,25.21
2023-09-10T13:49:46.403Z,25.35
2023-09-10T13:52:18.150Z,25.03
2023-09-10T13:54:49.748Z,25.57
2023-09-10T13:57:19.950Z,25.73
2023-09-10T13:59:50.979Z,25.96
2023-09-10T14:02:22.089Z,25.55
2023-09-10T14:04:53.376Z,26.03
2023-09-10T14:07:24.002Z,25.96
2023-09-10T14:09:53.884Z,25.96
2023-09-10T14:12:24.205Z,26.26
2023-09-10T14:14:54.936Z,26.39
2023-09-10T14:17:25.783Z,27.18
2023-09-10T14:19:55.662Z,27.81
2023-09-10T14:22:25.849Z,26.88
2023-09-10T14:24:56.330Z,27.19
2023-09-10T14:27:27.085Z,26.88
2023-09-10T14:29:57.262Z,26.40
2023-09-10T14:32:27.526Z,26.29
2023-09-10T14:34:59.107Z,27.10
2023-09-10T14:37:31.023Z,27.16
2023-09-10T14:40:01.227Z,27.26
2023-09-10T14:42:31.164Z,28.14
2023-09-10T14:45:01.219Z,28.28
2023-09-10T14:47:33.301Z,27.71
2023-09-10T14:50:05.037Z,27.20
2023-09-10T14:52:35.576Z,27.63
2023-09-10T14:55:05.941Z,27.78
2023-09-10T14:57:36.895Z,27.36
2023-09-10T15:00:09.301Z,27.46
2023-09-10T15:02:40.572Z,28.02
2023-09-10T15:05:15.505Z,27.81
2023-09-10T15:07:46.369Z,26.99
2023-09-10T15:10:17.422Z,27.46
2023-09-10T15:12:47.798Z,27.28
2023-09-10T15:15:17.719Z,27.43
2023-09-10T15:17:48.443Z,27.46
2023-09-10T15:20:18.903Z,27.20
2023-09-10T15:22:50.858Z,28.09
2023-09-10T15:25:21.098Z,27.87
2023-09-10T15:27:52.290Z,28.00
2023-09-10T15:30:23.063Z,28.46
2023-09-10T15:32:54.585Z,28.41
2023-09-10T15:35:25.071Z,29.17
2023-09-10T15:37:55.226Z,29.18
2023-09-10T15:40:26.644Z,28.90
2023-09-10T15:42:57.702Z,29.25
2023-09-10T15:45:29.289Z,29.43
2023-09-10T15:48:00.533Z,29.55
2023-09-10T15:50:31.759Z,29.33
2023-09-10T15:53:02.837Z,29.73
2023-09-10T15:55:35.169Z,29.85
2023-09-10T15:58:05.420Z,30.45
2023-09-10T16:00:35.369Z,30.64
2023-09-10T16:03:06.167Z,30.90
2023-09-10T16:05:37.768Z,30.72
2023-09-10T16:08:08.154Z,30.63
2023-09-10T16:10:38.411Z,30.37
2023-09-10T16:13:09.980Z,29.82
2023-09-10T16:15:40.430Z,30.71
2023-09-10T16:18:10.577Z,31.12
2023-09-10T16:20:41.140Z,31.51
2023-09-10T16:23:12.135Z,31.28
2023-09-10T16:25:44.109Z,31.09
2023-09-10T16:28:14.654Z,30.61
2023-09-10T16:30:44.709Z,31.25
2023-09-10T16:33:15.418Z,30.99
2023-09-10T16:35:46.133Z,30.67
2023-09-10T16:38:17.438Z,29.93
2023-09-10T16:40:48.483Z,29.41
2023-09-10T16:43:19.824Z,29.83
2023-09-10T16:45:50.157Z,30.19
2023-09-10T16:48:21.260Z,30.19
2023-09-10T16:50:51.695Z,30.64
2023-09-10T16:53:21.796Z,30.67
2023-09-10T16:55:56.868Z,29.65
2023-09-10T16:58:27.892Z,29.39
2023-09-10T17:00:58.454Z,28.57
2023-09-10T17:03:28.878Z,28.46
2023-09-10T17:05:59.743Z,28.42
2023-09-10T17:08:30.857Z,28.52
2023-09-10T17:11:01.275Z,28.87
2023-09-10T17:13:31.597Z,28.89
2023-09-10T17:16:11.153Z,28.93
2023-09-10T17:18:42.468Z,28.99
2023-09-10T17:21:12.730Z,29.52
2023-09-10T17:23:43.130Z,29.99
2023-09-10T17:26:16.519Z,29.45
2023-09-10T17:28:48.467Z,28.79
2023-09-10T17:31:20.498Z,29.37
2023-09-10T17:33:52.245Z,29.28
2023-09-10T17:36:22.530Z,29.15
2023-09-10T17:38:52.868Z,29.06
2023-09-10T17:41:24.392Z,28.82
2023-09-10T17:43:54.942Z,28.38
2023-09-10T17:46:27.622Z,28.66
2023-09-10T17:48:58.845Z,28.76
2023-09-10T17:51:29.277Z,29.52
2023-09-10T17:53:59.665Z,29.66
2023-09-10T17:56:30.559Z,30.09
2023-09-10T17:59:01.329Z,30.41
2023-09-10T18:01:35.695Z,30.43
2023-09-10T18:04:06.530Z,28.94
2023-09-10T18:06:36.597Z,29.14
2023-09-10T18:09:07.507Z,29.17
2023-09-10T18:11:39.770Z,28.94
2023-09-10T18:14:10.138Z,27.81
2023-09-10T18:16:40.144Z,28.46
2023-09-10T18:19:11.186Z,28.21
2023-09-10T18:21:41.601Z,28.04
2023-09-10T18:24:14.529Z,28.76
2023-09-10T18:26:44.595Z,27.47
2023-09-10T18:29:14.680Z,26.99
2023-09-10T18:31:45.289Z,28.79
2023-09-10T18:34:15.864Z,29.02
2023-09-10T18:36:46.485Z,29.15
2023-09-10T18:39:16.511Z,29.65
2023-09-10T18:41:46.879Z,27.96
2023-09-10T18:44:17.921Z,28.73
2023-09-10T18:46:59.912Z,28.12
2023-09-10T18:49:31.532Z,31.01
2023-09-10T18:52:06.293Z,32.11
2023-09-10T18:54:37.318Z,31.50
2023-09-10T18:57:10.367Z,31.50
2023-09-10T18:59:40.604Z,31.87
2023-09-10T19:02:10.735Z,31.53
2023-09-10T19:04:41.201Z,30.44
2023-09-10T19:07:12.621Z,31.19
2023-09-10T19:09:44.744Z,31.11
2023-09-10T19:12:16.516Z,29.54
2023-09-10T19:14:46.776Z,28.73
2023-09-10T19:17:16.777Z,27.59
2023-09-10T19:19:47.443Z,27.30
2023-09-10T19:22:18.364Z,27.01
2023-09-10T19:24:48.838Z,26.87
2023-09-10T19:27:19.894Z,26.50
2023-09-10T19:29:50.606Z,26.24
2023-09-10T19:32:21.570Z,25.92
2023-09-10T19:34:52.115Z,25.71
2023-09-10T19:37:24.054Z,25.46
2023-09-10T19:39:55.363Z,25.38
2023-09-10T19:42:26.667Z,25.28
2023-09-10T19:44:57.025Z,25.23
2023-09-10T19:47:27.031Z,25.21
2023-09-10T19:49:57.318Z,25.13
2023-09-10T19:52:27.677Z,25.11
2023-09-10T19:55:07.369Z,25.04
2023-09-10T19:57:40.832Z,25.07
2023-09-10T20:00:12.774Z,25.03
2023-09-10T20:02:44.143Z,25.04
2023-09-10T20:05:15.037Z,24.98
2023-09-10T20:07:45.148Z,24.82
2023-09-10T20:10:15.258Z,24.65
2023-09-10T20:12:45.717Z,24.56
2023-09-10T20:15:16.185Z,24.49
2023-09-10T20:17:47.402Z,24.35
2023-09-10T20:20:19.374Z,24.22
2023-09-10T20:22:49.665Z,24.08
2023-09-10T20:25:21.232Z,23.94
2023-09-10T20:27:52.702Z,23.77
2023-09-10T20:30:25.902Z,23.66
2023-09-10T20:32:56.914Z,23.54
2023-09-10T20:35:28.285Z,23.43
2023-09-10T20:38:00.499Z,23.30
2023-09-10T20:40:30.475Z,23.20
2023-09-10T20:43:00.528Z,23.08
2023-09-10T20:45:31.791Z,22.96
2023-09-10T20:48:08.305Z,22.87
2023-09-10T20:50:39.026Z,22.73
2023-09-10T20:53:09.279Z,22.61
2023-09-10T20:55:39.882Z,22.45
2023-09-10T20:58:11.124Z,22.33
2023-09-10T21:00:45.224Z,22.21
2023-09-10T21:03:26.584Z,22.07
2023-09-10T21:06:01.081Z,22.00
2023-09-10T21:08:32.570Z,21.88
2023-09-10T21:11:05.845Z,21.76
2023-09-10T21:13:36.239Z,21.66
2023-09-10T21:16:07.265Z,21.58
2023-09-10T21:18:39.268Z,21.48
2023-09-10T21:21:09.460Z,21.41
2023-09-10T21:23:39.739Z,21.31
2023-09-10T21:26:10.754Z,21.24
2023-09-10T21:28:42.370Z,21.18
2023-09-10T21:31:14.399Z,21.14
2023-09-10T21:33:45.273Z,21.05
2023-09-10T21:36:16.063Z,20.93
2023-09-10T21:38:47.664Z,20.84
2023-09-10T21:41:17.929Z,20.83
2023-09-10T21:43:48.198Z,20.77
2023-09-10T21:46:18.489Z,20.77
2023-09-10T21:48:49.856Z,20.67
2023-09-10T21:51:20.198Z,20.65
2023-09-10T21:53:50.448Z,20.62
2023-09-10T21:56:21.054Z,20.59
2023-09-10T21:58:53.049Z,20.57
2023-09-10T22:01:23.188Z,20.57
2023-09-10T22:03:53.254Z,20.57
2023-09-10T22:06:23.874Z,20.56
2023-09-10T22:08:54.273Z,20.50
2023-09-10T22:11:25.835Z,20.46
2023-09-10T22:13:55.913Z,20.42
2023-09-10T22:16:27.225Z,20.39
2023-09-10T22:18:58.050Z,20.36
2023-09-10T22:21:29.100Z,20.35
2023-09-10T22:23:59.279Z,20.30
2023-09-10T22:26:29.262Z,20.26
2023-09-10T22:28:59.414Z,20.22
2023-09-10T22:31:31.483Z,20.19
2023-09-10T22:34:02.605Z,20.11
2023-09-10T22:36:38.097Z,20.04
2023-09-10T22:39:09.628Z,19.98
2023-09-10T22:41:40.440Z,19.95
2023-09-10T22:44:12.903Z,19.89
2023-09-10T22:46:43.960Z,19.85
2023-09-10T22:49:14.490Z,19.84
2023-09-10T22:51:47.775Z,19.81
2023-09-10T22:54:19.397Z,19.75
2023-09-10T22:56:49.574Z,19.64
2023-09-10T22:59:19.607Z,19.60
2023-09-10T23:01:50.155Z,19.56
2023-09-10T23:04:20.863Z,19.53
2023-09-10T23:06:52.989Z,19.49
2023-09-10T23:09:23.272Z,19.47
2023-09-10T23:11:53.388Z,19.45
2023-09-10T23:14:26.105Z,19.37
2023-09-10T23:16:56.574Z,19.36
2023-09-10T23:19:26.612Z,19.31
2023-09-10T23:21:56.994Z,19.29
2023-09-10T23:24:29.856Z,19.26
2023-09-10T23:27:04.306Z,19.22
2023-09-10T23:29:37.181Z,19.19
2023-09-10T23:32:07.851Z,19.12
2023-09-10T23:34:38.044Z,19.09
2023-09-10T23:37:09.279Z,19.09
2023-09-10T23:39:41.585Z,19.09
2023-09-10T23:42:12.296Z,19.05
2023-09-10T23:44:42.181Z,19.00
2023-09-10T23:47:13.048Z,18.99
2023-09-10T23:49:43.738Z,18.99
2023-09-10T23:52:13.980Z,18.96
2023-09-10T23:54:44.274Z,18.92
2023-09-10T23:57:14.637Z,18.91
2023-09-10T23:59:46.273Z,18.91
